Flight Track Log - Related Links

Times and Time Zones

All times are in EST time to prevent confusion due to time zone crossing. See the N830QS flight status page for this flight to view local times or setup timezone preferences in your user account.

Time Position Orientation Groundspeed Altitude Reporting Facility
EST Latitude Longitude Course Direction KTS MPH feet Rate Location/Type
Sun 09:36:13 AM 34.3464 -90.4614 61° Northeast 227 261 3,900  Level Memphis Center
Sun 09:37:14 AM 34.3775 -90.3928 61° Northeast 229 264 7,100 2,878 Climbing Memphis Center
Sun 09:38:16 AM 34.3883 -90.3175 80° East 245 282 9,800 2,710 Climbing Memphis Center
Sun 09:39:18 AM 34.3719 -90.2314 103° East 256 295 12,700 2,585 Climbing Memphis Center
Sun 09:40:19 AM 34.3517 -90.1281 103° East 299 344 15,100 2,341 Climbing Memphis Center
Sun 09:41:21 AM 34.3286 -90.0108 103° East 339 390 17,500 2,244 Climbing Memphis Center
Sun 09:42:22 AM 34.3033 -89.8867 104° East 365 420 19,700 1,869 Climbing Memphis Center
Sun 09:43:23 AM 34.2764 -89.7522 104° East 394 453 21,300 1,659 Climbing Memphis Center
Sun 09:44:25 AM 34.2428 -89.5831 103° East 430 495 23,100 1,597 Climbing Memphis Center
Sun 09:45:27 AM 34.2072 -89.4381 106° East 450 518 24,600 1,707 Climbing Memphis Center
Sun 09:46:28 AM 34.1447 -89.3078 120° Southeast 448 516 26,600 1,756 Climbing Memphis Center
Sun 09:47:30 AM 34.1089 -89.1661 107° East 448 516 28,200 1,317 Climbing Memphis Center
Sun 09:48:31 AM 34.0797 -89.0150 103° East 455 524 29,300 1,024 Climbing Memphis Center
Sun 09:49:33 AM 34.0525 -88.8581 102° East 468 539 30,300 927 Climbing Memphis Center
Sun 09:50:34 AM 34.0239 -88.7144 103° East 475 547 31,200 1,033 Climbing Memphis Center
Sun 09:51:35 AM 33.9894 -88.5278 102° East 478 550 32,400 878 Climbing Memphis Center
Sun 09:52:37 AM 33.9597 -88.3725 103° East 478 550 33,000 290 Climbing Memphis Center
Sun 09:53:39 AM 33.9300 -88.2164 103° East 481 554 33,000  Level Memphis Center
Sun 09:54:40 AM 33.9008 -88.0614 103° East 479 551 33,000  Level Memphis Center
Sun 09:55:42 AM 33.8706 -87.9083 103° East 475 547 33,000  Level Memphis Center
Sun 09:56:43 AM 33.8408 -87.7539 103° East 477 549 33,000  Level Memphis Center
Sun 09:57:45 AM 33.8039 -87.5700 104° East 477 549 33,000  Level Memphis Center
Sun 09:58:46 AM 33.7739 -87.4175 103° East 475 547 33,000  Level Memphis Center
Sun 09:59:39 AM 33.7472 -87.2917 104° East 479 551 33,000  Level Atlanta Center
Sun 10:00:39 AM 33.7156 -87.1381 104° East 479 551 33,000  Level Atlanta Center
Sun 10:01:39 AM 33.6861 -86.9822 103° East 474 545 33,000  Level Atlanta Center
Sun 10:02:39 AM 33.6667 -86.8242 98° East 474 545 33,000  Level Atlanta Center
Sun 10:03:39 AM 33.6661 -86.6619 90° East 474 545 33,000  Level Atlanta Center
Sun 10:04:39 AM 33.6653 -86.5022 90° East 474 545 33,000  Level Atlanta Center
Sun 10:05:39 AM 33.6642 -86.3425 90° East 480 552 33,000  Level Atlanta Center
Sun 10:06:39 AM 33.6608 -86.1853 91° East 475 547 33,000  Level Atlanta Center
Sun 10:07:39 AM 33.6614 -86.0206 90° East 475 547 33,000  Level Atlanta Center
Sun 10:08:39 AM 33.6575 -85.8631 92° East 475 547 33,000  Level Atlanta Center
Sun 10:09:39 AM 33.6600 -85.6911 89° East 469 540 33,000  Level Atlanta Center
Sun 10:10:39 AM 33.6558 -85.5311 92° East 469 540 33,000  Level Atlanta Center
Sun 10:11:39 AM 33.6514 -85.3714 92° East 474 545 33,000  Level Atlanta Center
Sun 10:12:39 AM 33.6489 -85.2117 91° East 479 551 33,000  Level Atlanta Center
Sun 10:13:39 AM 33.6458 -85.0694 91° East 479 551 33,000  Level Atlanta Center
Sun 10:14:39 AM 33.6389 -84.9097 93° East 479 551 33,000  Level Atlanta Center
Sun 10:15:39 AM 33.6356 -84.7500 91° East 479 551 33,000  Level Atlanta Center
Sun 10:16:39 AM 33.6322 -84.5928 91° East 479 551 33,000  Level Atlanta Center
Sun 10:17:39 AM 33.6331 -84.4156 90° East 479 551 33,000  Level Atlanta Center
Sun 10:18:39 AM 33.6731 -84.2686 72° East 461 531 33,000  Level Atlanta Center
Sun 10:19:39 AM 33.7128 -84.1311 71° East 475 547 33,000  Level Atlanta Center
Sun 10:20:39 AM 33.7544 -83.9789 72° East 475 547 33,000  Level Atlanta Center
Sun 10:21:39 AM 33.7961 -83.8339 71° East 469 540 33,000  Level Atlanta Center
Sun 10:22:39 AM 33.8375 -83.6836 72° East 469 540 33,000  Level Atlanta Center
Sun 10:23:39 AM 33.8789 -83.5308 72° East 464 534 33,000  Level Atlanta Center
Sun 10:24:39 AM 33.9197 -83.3806 72° East 464 534 33,000  Level Atlanta Center
Sun 10:25:39 AM 33.9606 -83.2322 72° East 464 534 33,000  Level Atlanta Center
Sun 10:26:39 AM 34.0014 -83.0767 72° East 464 534 33,000  Level Atlanta Center
Sun 10:27:39 AM 34.0458 -82.9156 72° East 464 534 33,000  Level Atlanta Center
Sun 10:28:39 AM 34.0881 -82.7644 71° East 464 534 33,000 -500 Level Atlanta Center
Sun 10:29:39 AM 34.1242 -82.6136 74° East 459 528 32,000 -1,750 Descending Atlanta Center
Sun 10:30:39 AM 34.1683 -82.4697 70° East 459 528 29,500 -2,500 Descending Atlanta Center
Sun 10:31:39 AM 34.2100 -82.3181 72° East 459 528 27,000 -2,500 Descending Atlanta Center
Sun 10:32:39 AM 34.2497 -82.1692 72° East 469 540 24,500 -2,400 Descending Atlanta Center
Sun 10:33:39 AM 34.3272 -82.0617 49° Northeast 444 511 22,200 -2,250 Descending Atlanta Center
Sun 10:34:39 AM 34.4047 -81.9592 47° Northeast 421 484 20,000 -2,150 Descending Atlanta Center
Sun 10:35:39 AM 34.4825 -81.8639 45° Northeast 408 470 17,900 -2,018 Descending Atlanta Center
Sun 10:36:32 AM 34.5458 -81.7817 47° Northeast 370 426 16,200 -1,800 Descending Atlanta Center
Sun 10:36:39 AM 34.5539 -81.7714 46° Northeast 380 437 16,100 -1,500 Descending Atlanta Center
Sun 10:36:44 AM 34.5600 -81.7686 21° North 371 427 15,900 -2,000 Descending Atlanta Center
Sun 10:37:45 AM 34.6314 -81.6783 46° Northeast 371 427 13,900 -1,930 Descending Atlanta Center
Sun 10:38:39 AM 34.6883 -81.5986 49° Northeast 351 404 12,200 -1,869 Descending Atlanta Center
Sun 10:38:46 AM 34.7006 -81.5881 35° Northeast 321 369 12,000 -985 Descending Atlanta Center
Sun 10:39:46 AM 34.7575 -81.5181 45° Northeast 279 321 11,100 -531 Descending Atlanta Center
Sun 10:40:39 AM 34.8000 -81.4536 51° Northeast 294 338 11,000 -98 Descending Atlanta Center
Sun 10:40:47 AM 34.8103 -81.4456 33° Northeast 296 341 11,000 -200 Level Atlanta Center
Sun 10:41:39 AM 34.8483 -81.3686 59° Northeast 294 338 10,800 -689 Descending Atlanta Center
Sun 10:41:48 AM 34.8564 -81.3531 58° Northeast 316 364 10,300 -2,571 Descending Atlanta Center
Sun 10:42:49 AM 34.8983 -81.2658 60° Northeast 300 345 7,800 -1,623 Descending Atlanta Center
Sun 10:43:50 AM 34.9422 -81.1831 57° Northeast 271 312 7,000 -655 Descending Atlanta Center
Sun 10:44:39 AM 34.9742 -81.1236 57° Northeast 286 329 6,600 -885 Descending Atlanta Center
Sun 10:44:51 AM 34.9864 -81.1031 54° Northeast 281 323 6,100 -800 Descending Atlanta Center
Sun 10:45:39 AM 35.0100 -81.0514 61° Northeast 281 323 5,800 -1,672 Descending Atlanta Center
Sun 10:45:52 AM 35.0222 -81.0333 50° Northeast 245 282 4,400 -1,890 Descending Atlanta Center
Sun 10:46:52 AM 35.0581 -80.9711 55° Northeast 219 252 3,500 -744 Descending Atlanta Center
Sun 10:47:53 AM 35.1094 -80.9336 31° Northeast 203 234 2,900 -934 Descending Atlanta Center
Sun 10:48:54 AM 35.1575 -80.9344 359° North 148 170 1,600 -934 Descending Atlanta Center
Sun 10:49:55 AM 35.1928 -80.9356 359° North 112 129 1,000 -590 Descending Atlanta Center
Sun 10:51:00 AM 35.2137 -80.9491 356° North  Level Estimated
Sun 10:58:00 AM 35.2137 -80.9491 158° South  Level Estimated

Login

Don't have an account? Register now (free) for customized features, flight alerts, and more!